sensor_id;sensor_type;location;lat;lon;timestamp;pressure;altitude;pressure_sealevel;temperature;humidity
4745;BME280;2386;42.138;24.746;2022-08-19T00:00:35;99062.91;;;27.98;51.58
4745;BME280;2386;42.138;24.746;2022-08-19T00:03:01;99066.59;;;28.02;51.84
4745;BME280;2386;42.138;24.746;2022-08-19T00:05:26;99069.41;;;28.02;51.22
4745;BME280;2386;42.138;24.746;2022-08-19T00:07:52;99060.56;;;28.00;51.42
4745;BME280;2386;42.138;24.746;2022-08-19T00:10:18;99065.25;;;27.96;52.25
4745;BME280;2386;42.138;24.746;2022-08-19T00:12:44;99057.16;;;27.91;52.04
4745;BME280;2386;42.138;24.746;2022-08-19T00:15:12;99059.50;;;27.89;51.98
4745;BME280;2386;42.138;24.746;2022-08-19T00:17:41;99063.63;;;27.95;51.92
4745;BME280;2386;42.138;24.746;2022-08-19T00:20:08;99071.28;;;27.83;52.40
4745;BME280;2386;42.138;24.746;2022-08-19T00:22:36;99050.31;;;27.73;52.97
4745;BME280;2386;42.138;24.746;2022-08-19T00:25:05;99063.72;;;27.83;52.32
4745;BME280;2386;42.138;24.746;2022-08-19T00:27:31;99062.09;;;27.82;52.69
4745;BME280;2386;42.138;24.746;2022-08-19T00:29:57;99061.47;;;27.73;53.93
4745;BME280;2386;42.138;24.746;2022-08-19T00:32:24;99061.81;;;27.71;54.89
4745;BME280;2386;42.138;24.746;2022-08-19T00:34:51;99060.22;;;27.70;54.05
4745;BME280;2386;42.138;24.746;2022-08-19T00:37:22;99053.63;;;27.63;53.85
4745;BME280;2386;42.138;24.746;2022-08-19T00:39:51;99050.09;;;27.50;54.67
4745;BME280;2386;42.138;24.746;2022-08-19T00:42:19;99045.41;;;27.54;53.79
4745;BME280;2386;42.138;24.746;2022-08-19T00:44:45;99051.09;;;27.58;55.61
4745;BME280;2386;42.138;24.746;2022-08-19T00:50:33;99016.56;;;27.31;56.16
4745;BME280;2386;42.138;24.746;2022-08-19T00:52:59;99027.34;;;27.32;56.18
4745;BME280;2386;42.138;24.746;2022-08-19T00:55:30;99033.09;;;27.39;56.79
4745;BME280;2386;42.138;24.746;2022-08-19T00:58:03;99023.03;;;27.35;56.59
4745;BME280;2386;42.138;24.746;2022-08-19T01:00:32;99032.91;;;27.32;57.09
4745;BME280;2386;42.138;24.746;2022-08-19T01:03:02;99027.69;;;27.31;58.06
4745;BME280;2386;42.138;24.746;2022-08-19T01:05:28;99014.28;;;27.21;57.46
4745;BME280;2386;42.138;24.746;2022-08-19T01:07:56;99021.84;;;27.20;57.89
4745;BME280;2386;42.138;24.746;2022-08-19T01:10:25;99007.53;;;26.94;58.04
4745;BME280;2386;42.138;24.746;2022-08-19T01:12:52;99018.66;;;26.94;59.15
4745;BME280;2386;42.138;24.746;2022-08-19T01:15:22;99021.69;;;27.01;59.04
4745;BME280;2386;42.138;24.746;2022-08-19T01:17:50;99011.00;;;27.03;59.09
4745;BME280;2386;42.138;24.746;2022-08-19T01:20:19;99017.72;;;27.02;59.16
4745;BME280;2386;42.138;24.746;2022-08-19T01:22:54;99014.50;;;26.88;60.23
4745;BME280;2386;42.138;24.746;2022-08-19T01:25:23;99021.81;;;26.92;60.46
4745;BME280;2386;42.138;24.746;2022-08-19T01:27:50;99016.84;;;26.85;61.04
4745;BME280;2386;42.138;24.746;2022-08-19T01:30:31;99027.97;;;26.85;60.64
4745;BME280;2386;42.138;24.746;2022-08-19T01:32:57;99035.50;;;26.85;61.44
4745;BME280;2386;42.138;24.746;2022-08-19T01:35:26;99029.84;;;26.81;62.00
4745;BME280;2386;42.138;24.746;2022-08-19T01:37:57;99048.63;;;26.84;61.69
4745;BME280;2386;42.138;24.746;2022-08-19T01:40:25;99052.22;;;26.85;62.30
4745;BME280;2386;42.138;24.746;2022-08-19T01:42:51;99050.25;;;26.85;61.15
4745;BME280;2386;42.138;24.746;2022-08-19T01:45:19;99057.53;;;26.90;61.39
4745;BME280;2386;42.138;24.746;2022-08-19T01:47:45;99050.94;;;26.82;62.36
4745;BME280;2386;42.138;24.746;2022-08-19T01:50:12;99061.38;;;26.85;61.71
4745;BME280;2386;42.138;24.746;2022-08-19T01:52:39;99062.78;;;26.79;61.68
4745;BME280;2386;42.138;24.746;2022-08-19T01:55:07;99060.63;;;26.73;61.92
4745;BME280;2386;42.138;24.746;2022-08-19T01:57:33;99068.34;;;26.79;62.71
4745;BME280;2386;42.138;24.746;2022-08-19T01:59:59;99060.69;;;26.76;63.09
4745;BME280;2386;42.138;24.746;2022-08-19T02:02:25;99073.91;;;26.79;63.39
4745;BME280;2386;42.138;24.746;2022-08-19T02:04:50;99078.50;;;26.72;62.36
4745;BME280;2386;42.138;24.746;2022-08-19T02:07:19;99071.78;;;26.61;62.32
4745;BME280;2386;42.138;24.746;2022-08-19T02:09:45;99075.03;;;26.63;62.45
4745;BME280;2386;42.138;24.746;2022-08-19T02:15:32;99069.59;;;26.54;62.64
4745;BME280;2386;42.138;24.746;2022-08-19T02:17:58;99078.19;;;26.49;63.15
4745;BME280;2386;42.138;24.746;2022-08-19T02:20:23;99084.56;;;26.49;63.34
4745;BME280;2386;42.138;24.746;2022-08-19T02:22:49;99092.09;;;26.37;63.90
4745;BME280;2386;42.138;24.746;2022-08-19T02:25:15;99096.97;;;26.40;64.05
4745;BME280;2386;42.138;24.746;2022-08-19T02:27:42;99088.81;;;26.23;65.29
4745;BME280;2386;42.138;24.746;2022-08-19T02:30:11;99094.75;;;26.33;65.68
4745;BME280;2386;42.138;24.746;2022-08-19T02:32:36;99097.19;;;26.35;64.19
4745;BME280;2386;42.138;24.746;2022-08-19T02:35:02;99095.78;;;26.29;63.82
4745;BME280;2386;42.138;24.746;2022-08-19T02:37:28;99099.25;;;26.26;64.89
4745;BME280;2386;42.138;24.746;2022-08-19T02:40:16;99093.22;;;26.24;65.28
4745;BME280;2386;42.138;24.746;2022-08-19T02:42:43;99097.88;;;26.32;65.48
4745;BME280;2386;42.138;24.746;2022-08-19T02:45:09;99100.16;;;26.17;66.27
4745;BME280;2386;42.138;24.746;2022-08-19T02:47:35;99110.13;;;26.31;65.16
4745;BME280;2386;42.138;24.746;2022-08-19T02:50:01;99106.44;;;26.14;65.99
4745;BME280;2386;42.138;24.746;2022-08-19T02:52:27;99108.28;;;26.23;66.54
4745;BME280;2386;42.138;24.746;2022-08-19T02:54:53;99100.63;;;26.19;66.35
4745;BME280;2386;42.138;24.746;2022-08-19T02:57:20;99114.19;;;25.97;66.92
4745;BME280;2386;42.138;24.746;2022-08-19T02:59:46;99120.09;;;26.07;66.39
4745;BME280;2386;42.138;24.746;2022-08-19T03:02:12;99112.69;;;26.11;66.31
4745;BME280;2386;42.138;24.746;2022-08-19T03:04:38;99117.78;;;26.09;66.97
4745;BME280;2386;42.138;24.746;2022-08-19T03:07:03;99106.19;;;25.95;66.40
4745;BME280;2386;42.138;24.746;2022-08-19T03:09:28;99117.44;;;25.99;68.78
4745;BME280;2386;42.138;24.746;2022-08-19T03:11:55;99125.88;;;26.02;69.11
4745;BME280;2386;42.138;24.746;2022-08-19T03:14:20;99116.50;;;26.07;67.75
4745;BME280;2386;42.138;24.746;2022-08-19T03:16:48;99120.78;;;26.04;67.54
4745;BME280;2386;42.138;24.746;2022-08-19T03:19:16;99120.09;;;25.95;68.01
4745;BME280;2386;42.138;24.746;2022-08-19T03:21:42;99130.97;;;26.00;68.36
4745;BME280;2386;42.138;24.746;2022-08-19T03:24:09;99130.28;;;26.03;69.46
4745;BME280;2386;42.138;24.746;2022-08-19T03:26:39;99124.84;;;26.07;68.75
4745;BME280;2386;42.138;24.746;2022-08-19T03:29:05;99132.50;;;26.10;69.01
4745;BME280;2386;42.138;24.746;2022-08-19T03:31:31;99133.53;;;26.05;68.99
4745;BME280;2386;42.138;24.746;2022-08-19T03:33:57;99135.38;;;26.01;69.11
4745;BME280;2386;42.138;24.746;2022-08-19T03:36:25;99139.69;;;25.99;69.25
4745;BME280;2386;42.138;24.746;2022-08-19T03:38:54;99139.22;;;25.97;69.91
4745;BME280;2386;42.138;24.746;2022-08-19T03:41:22;99137.25;;;25.97;70.84
4745;BME280;2386;42.138;24.746;2022-08-19T03:43:49;99147.66;;;26.00;70.94
4745;BME280;2386;42.138;24.746;2022-08-19T03:46:20;99128.91;;;25.97;70.74
4745;BME280;2386;42.138;24.746;2022-08-19T03:48:48;99142.56;;;25.90;70.63
4745;BME280;2386;42.138;24.746;2022-08-19T03:51:23;99147.22;;;25.98;70.26
4745;BME280;2386;42.138;24.746;2022-08-19T03:53:50;99147.66;;;25.88;71.73
4745;BME280;2386;42.138;24.746;2022-08-19T03:56:42;99157.56;;;25.77;72.23
4745;BME280;2386;42.138;24.746;2022-08-19T03:59:13;99142.31;;;25.83;71.95
4745;BME280;2386;42.138;24.746;2022-08-19T04:01:39;99145.69;;;25.89;72.95
4745;BME280;2386;42.138;24.746;2022-08-19T04:04:05;99144.41;;;25.86;73.40
4745;BME280;2386;42.138;24.746;2022-08-19T04:06:33;99145.13;;;25.95;72.29
4745;BME280;2386;42.138;24.746;2022-08-19T04:09:01;99148.38;;;25.97;73.31
4745;BME280;2386;42.138;24.746;2022-08-19T04:11:31;99146.16;;;26.03;73.46
4745;BME280;2386;42.138;24.746;2022-08-19T04:13:59;99155.53;;;25.98;71.42
4745;BME280;2386;42.138;24.746;2022-08-19T04:16:26;99163.97;;;26.02;70.83
4745;BME280;2386;42.138;24.746;2022-08-19T04:18:56;99158.06;;;26.03;71.59
4745;BME280;2386;42.138;24.746;2022-08-19T04:21:24;99163.19;;;26.13;72.83
4745;BME280;2386;42.138;24.746;2022-08-19T04:23:50;99160.75;;;26.12;72.86
4745;BME280;2386;42.138;24.746;2022-08-19T04:26:18;99160.53;;;26.17;73.07
4745;BME280;2386;42.138;24.746;2022-08-19T04:28:45;99152.78;;;26.23;72.25
4745;BME280;2386;42.138;24.746;2022-08-19T04:31:25;99155.78;;;26.30;70.48
4745;BME280;2386;42.138;24.746;2022-08-19T04:33:53;99161.25;;;26.26;71.21
4745;BME280;2386;42.138;24.746;2022-08-19T04:36:27;99145.00;;;26.16;73.30
4745;BME280;2386;42.138;24.746;2022-08-19T04:38:58;99164.34;;;26.12;72.79
4745;BME280;2386;42.138;24.746;2022-08-19T04:41:25;99172.69;;;26.12;72.53
4745;BME280;2386;42.138;24.746;2022-08-19T04:44:10;99167.03;;;26.21;72.64
4745;BME280;2386;42.138;24.746;2022-08-19T04:46:36;99172.25;;;26.23;73.50
4745;BME280;2386;42.138;24.746;2022-08-19T04:49:03;99171.00;;;26.32;72.53
4745;BME280;2386;42.138;24.746;2022-08-19T04:51:30;99171.81;;;26.33;71.48
4745;BME280;2386;42.138;24.746;2022-08-19T04:53:56;99167.19;;;26.37;71.66
4745;BME280;2386;42.138;24.746;2022-08-19T04:56:22;99166.03;;;26.38;70.94
4745;BME280;2386;42.138;24.746;2022-08-19T04:58:52;99167.78;;;26.42;71.38
4745;BME280;2386;42.138;24.746;2022-08-19T05:01:20;99167.56;;;26.47;71.07
4745;BME280;2386;42.138;24.746;2022-08-19T05:03:46;99169.06;;;26.45;70.63
4745;BME280;2386;42.138;24.746;2022-08-19T05:06:14;99174.84;;;26.52;71.86
4745;BME280;2386;42.138;24.746;2022-08-19T05:08:41;99169.53;;;26.59;69.54
4745;BME280;2386;42.138;24.746;2022-08-19T05:11:29;99167.19;;;26.61;70.38
4745;BME280;2386;42.138;24.746;2022-08-19T05:13:56;99165.56;;;26.60;70.69
4745;BME280;2386;42.138;24.746;2022-08-19T05:16:24;99173.59;;;26.62;69.83
4745;BME280;2386;42.138;24.746;2022-08-19T05:18:50;99186.78;;;26.65;70.80
4745;BME280;2386;42.138;24.746;2022-08-19T05:21:35;99185.53;;;26.62;69.23
4745;BME280;2386;42.138;24.746;2022-08-19T05:24:21;99181.69;;;26.67;70.61
4745;BME280;2386;42.138;24.746;2022-08-19T05:26:48;99182.38;;;26.64;69.43
4745;BME280;2386;42.138;24.746;2022-08-19T05:29:16;99174.81;;;26.76;68.43
4745;BME280;2386;42.138;24.746;2022-08-19T05:31:42;99177.88;;;26.71;64.12
4745;BME280;2386;42.138;24.746;2022-08-19T05:34:08;99185.06;;;26.72;64.75
4745;BME280;2386;42.138;24.746;2022-08-19T05:36:37;99184.09;;;26.80;63.90
4745;BME280;2386;42.138;24.746;2022-08-19T05:39:05;99186.53;;;26.82;61.27
4745;BME280;2386;42.138;24.746;2022-08-19T05:41:33;99183.63;;;26.78;60.00
4745;BME280;2386;42.138;24.746;2022-08-19T05:44:03;99184.56;;;26.82;58.71
4745;BME280;2386;42.138;24.746;2022-08-19T05:46:31;99191.75;;;26.83;58.20
4745;BME280;2386;42.138;24.746;2022-08-19T05:48:57;99175.75;;;26.80;58.58
4745;BME280;2386;42.138;24.746;2022-08-19T05:51:24;99177.13;;;26.87;58.44
4745;BME280;2386;42.138;24.746;2022-08-19T05:53:50;99172.72;;;26.85;58.82
4745;BME280;2386;42.138;24.746;2022-08-19T05:56:16;99189.66;;;26.93;60.25
4745;BME280;2386;42.138;24.746;2022-08-19T05:58:44;99185.59;;;27.02;59.74
4745;BME280;2386;42.138;24.746;2022-08-19T06:01:15;99180.81;;;27.15;60.26
4745;BME280;2386;42.138;24.746;2022-08-19T06:03:41;99189.66;;;27.17;60.63
4745;BME280;2386;42.138;24.746;2022-08-19T06:09:28;99194.06;;;27.18;58.37
4745;BME280;2386;42.138;24.746;2022-08-19T06:11:56;99200.09;;;27.20;59.87
4745;BME280;2386;42.138;24.746;2022-08-19T06:14:29;99196.94;;;27.22;58.72
4745;BME280;2386;42.138;24.746;2022-08-19T06:16:57;99197.50;;;27.27;57.77
4745;BME280;2386;42.138;24.746;2022-08-19T06:19:27;99199.69;;;27.34;58.68
4745;BME280;2386;42.138;24.746;2022-08-19T06:21:55;99195.59;;;27.43;58.25
4745;BME280;2386;42.138;24.746;2022-08-19T06:24:24;99199.72;;;27.62;57.02
4745;BME280;2386;42.138;24.746;2022-08-19T06:26:51;99191.56;;;27.69;56.04
4745;BME280;2386;42.138;24.746;2022-08-19T06:29:18;99193.09;;;27.66;55.55
4745;BME280;2386;42.138;24.746;2022-08-19T06:31:49;99201.97;;;27.84;56.17
4745;BME280;2386;42.138;24.746;2022-08-19T06:34:16;99204.59;;;27.93;56.12
4745;BME280;2386;42.138;24.746;2022-08-19T06:36:45;99211.97;;;28.01;54.27
4745;BME280;2386;42.138;24.746;2022-08-19T06:39:16;99195.25;;;28.01;53.88
4745;BME280;2386;42.138;24.746;2022-08-19T06:41:47;99214.44;;;28.18;53.56
4745;BME280;2386;42.138;24.746;2022-08-19T06:44:14;99206.19;;;28.22;53.62
4745;BME280;2386;42.138;24.746;2022-08-19T06:46:40;99214.81;;;28.32;53.86
4745;BME280;2386;42.138;24.746;2022-08-19T06:49:06;99209.50;;;28.27;52.60
4745;BME280;2386;42.138;24.746;2022-08-19T06:51:33;99212.56;;;28.38;53.72
4745;BME280;2386;42.138;24.746;2022-08-19T06:53:59;99207.44;;;28.40;52.69
4745;BME280;2386;42.138;24.746;2022-08-19T06:56:28;99217.16;;;28.46;52.63
4745;BME280;2386;42.138;24.746;2022-08-19T06:59:02;99210.06;;;28.49;53.52
4745;BME280;2386;42.138;24.746;2022-08-19T07:01:28;99197.53;;;28.42;53.12
4745;BME280;2386;42.138;24.746;2022-08-19T07:03:53;99203.56;;;28.44;53.84
4745;BME280;2386;42.138;24.746;2022-08-19T07:06:19;99217.88;;;28.43;51.92
4745;BME280;2386;42.138;24.746;2022-08-19T07:08:46;99203.22;;;28.46;52.20
4745;BME280;2386;42.138;24.746;2022-08-19T07:11:13;99201.41;;;28.54;51.64
4745;BME280;2386;42.138;24.746;2022-08-19T07:13:39;99198.81;;;28.61;51.38
4745;BME280;2386;42.138;24.746;2022-08-19T07:16:11;99199.06;;;28.56;51.08
4745;BME280;2386;42.138;24.746;2022-08-19T07:18:38;99200.59;;;28.69;50.52
4745;BME280;2386;42.138;24.746;2022-08-19T07:21:14;99194.81;;;28.77;50.65
4745;BME280;2386;42.138;24.746;2022-08-19T07:23:41;99186.00;;;28.91;50.21
4745;BME280;2386;42.138;24.746;2022-08-19T07:26:09;99187.75;;;28.99;48.69
4745;BME280;2386;42.138;24.746;2022-08-19T07:28:35;99188.44;;;29.12;48.11
4745;BME280;2386;42.138;24.746;2022-08-19T07:31:06;99187.97;;;29.26;47.81
4745;BME280;2386;42.138;24.746;2022-08-19T07:33:31;99191.97;;;29.44;48.26
4745;BME280;2386;42.138;24.746;2022-08-19T07:35:58;99182.78;;;29.63;47.03
4745;BME280;2386;42.138;24.746;2022-08-19T07:38:24;99184.09;;;29.69;46.39
4745;BME280;2386;42.138;24.746;2022-08-19T07:40:50;99170.59;;;29.74;46.88
4745;BME280;2386;42.138;24.746;2022-08-19T07:43:16;99172.44;;;29.86;46.36
4745;BME280;2386;42.138;24.746;2022-08-19T07:45:42;99172.56;;;29.93;46.30
4745;BME280;2386;42.138;24.746;2022-08-19T07:48:08;99189.66;;;30.07;46.22
4745;BME280;2386;42.138;24.746;2022-08-19T07:50:33;99185.88;;;30.19;45.75
4745;BME280;2386;42.138;24.746;2022-08-19T07:52:59;99169.16;;;30.23;44.84
4745;BME280;2386;42.138;24.746;2022-08-19T07:55:37;99180.03;;;30.28;45.47
4745;BME280;2386;42.138;24.746;2022-08-19T07:58:03;99182.22;;;30.38;44.36
4745;BME280;2386;42.138;24.746;2022-08-19T08:00:30;99175.13;;;30.44;45.10
4745;BME280;2386;42.138;24.746;2022-08-19T08:02:55;99176.81;;;30.52;44.47
4745;BME280;2386;42.138;24.746;2022-08-19T08:05:21;99168.13;;;30.57;43.94
4745;BME280;2386;42.138;24.746;2022-08-19T08:08:06;99180.19;;;30.61;41.99
4745;BME280;2386;42.138;24.746;2022-08-19T08:10:50;99188.28;;;30.66;42.83
4745;BME280;2386;42.138;24.746;2022-08-19T08:13:15;99176.75;;;30.71;42.31
4745;BME280;2386;42.138;24.746;2022-08-19T08:15:41;99180.53;;;30.83;42.55
4745;BME280;2386;42.138;24.746;2022-08-19T08:18:06;99175.69;;;30.80;42.58
4745;BME280;2386;42.138;24.746;2022-08-19T08:20:32;99171.81;;;30.88;42.27
4745;BME280;2386;42.138;24.746;2022-08-19T08:22:58;99165.50;;;30.94;42.89
4745;BME280;2386;42.138;24.746;2022-08-19T08:25:42;99175.69;;;31.06;42.26
4745;BME280;2386;42.138;24.746;2022-08-19T08:28:08;99167.72;;;31.08;42.04
4745;BME280;2386;42.138;24.746;2022-08-19T08:30:34;99168.69;;;31.19;41.82
4745;BME280;2386;42.138;24.746;2022-08-19T08:33:02;99166.97;;;31.41;42.37
4745;BME280;2386;42.138;24.746;2022-08-19T08:35:28;99157.41;;;31.46;42.32
4745;BME280;2386;42.138;24.746;2022-08-19T08:37:54;99157.34;;;31.42;41.90
4745;BME280;2386;42.138;24.746;2022-08-19T08:40:26;99168.38;;;31.58;41.48
4745;BME280;2386;42.138;24.746;2022-08-19T08:45:28;99153.16;;;31.59;39.53
4745;BME280;2386;42.138;24.746;2022-08-19T08:47:55;99148.44;;;31.66;40.23
4745;BME280;2386;42.138;24.746;2022-08-19T08:50:33;99147.06;;;31.83;40.54
4745;BME280;2386;42.138;24.746;2022-08-19T08:53:05;99148.28;;;31.86;39.74
4745;BME280;2386;42.138;24.746;2022-08-19T08:55:31;99149.56;;;31.95;39.70
4745;BME280;2386;42.138;24.746;2022-08-19T08:58:07;99148.44;;;32.03;38.86
4745;BME280;2386;42.138;24.746;2022-08-19T09:00:46;99147.31;;;32.12;38.39
4745;BME280;2386;42.138;24.746;2022-08-19T09:05:59;99147.13;;;32.31;38.83
4745;BME280;2386;42.138;24.746;2022-08-19T09:11:03;99143.56;;;32.38;38.70
4745;BME280;2386;42.138;24.746;2022-08-19T09:14:02;99136.00;;;32.45;38.02
4745;BME280;2386;42.138;24.746;2022-08-19T09:16:23;99128.88;;;32.55;37.38
4745;BME280;2386;42.138;24.746;2022-08-19T09:18:56;99128.09;;;32.61;37.94
4745;BME280;2386;42.138;24.746;2022-08-19T09:21:24;99125.31;;;32.68;37.30
4745;BME280;2386;42.138;24.746;2022-08-19T09:23:51;99130.66;;;32.81;37.84
4745;BME280;2386;42.138;24.746;2022-08-19T09:26:25;99131.47;;;32.81;36.21
4745;BME280;2386;42.138;24.746;2022-08-19T09:28:52;99121.88;;;32.89;36.94
4745;BME280;2386;42.138;24.746;2022-08-19T09:31:23;99121.09;;;32.96;36.93
4745;BME280;2386;42.138;24.746;2022-08-19T09:33:49;99117.97;;;33.08;37.25
4745;BME280;2386;42.138;24.746;2022-08-19T09:36:16;99113.94;;;33.09;36.63
4745;BME280;2386;42.138;24.746;2022-08-19T09:38:44;99115.56;;;33.10;37.29
4745;BME280;2386;42.138;24.746;2022-08-19T09:41:12;99113.53;;;33.07;37.67
4745;BME280;2386;42.138;24.746;2022-08-19T09:43:40;99120.41;;;33.13;36.28
4745;BME280;2386;42.138;24.746;2022-08-19T09:46:08;99125.69;;;33.25;35.77
4745;BME280;2386;42.138;24.746;2022-08-19T09:48:40;99103.97;;;33.22;35.39
4745;BME280;2386;42.138;24.746;2022-08-19T09:51:09;99104.44;;;33.32;35.23
4745;BME280;2386;42.138;24.746;2022-08-19T09:53:36;99110.06;;;33.32;34.66
4745;BME280;2386;42.138;24.746;2022-08-19T09:56:03;99106.06;;;33.43;35.88
4745;BME280;2386;42.138;24.746;2022-08-19T09:58:30;99105.28;;;33.46;34.66
4745;BME280;2386;42.138;24.746;2022-08-19T10:00:58;99099.28;;;33.55;35.85
4745;BME280;2386;42.138;24.746;2022-08-19T10:03:25;99085.59;;;33.53;35.47
4745;BME280;2386;42.138;24.746;2022-08-19T10:05:52;99094.88;;;33.68;33.83
4745;BME280;2386;42.138;24.746;2022-08-19T10:08:24;99085.28;;;33.80;35.04
4745;BME280;2386;42.138;24.746;2022-08-19T10:10:54;99094.94;;;33.82;33.85
4745;BME280;2386;42.138;24.746;2022-08-19T10:13:24;99082.09;;;33.95;34.37
4745;BME280;2386;42.138;24.746;2022-08-19T10:15:54;99080.09;;;33.96;33.80
4745;BME280;2386;42.138;24.746;2022-08-19T10:18:22;99080.09;;;34.00;33.97
4745;BME280;2386;42.138;24.746;2022-08-19T10:20:49;99079.28;;;34.03;33.63
4745;BME280;2386;42.138;24.746;2022-08-19T10:23:16;99072.84;;;34.06;34.05
4745;BME280;2386;42.138;24.746;2022-08-19T10:25:42;99071.25;;;34.08;33.09
4745;BME280;2386;42.138;24.746;2022-08-19T10:28:09;99069.59;;;34.18;33.49
4745;BME280;2386;42.138;24.746;2022-08-19T10:30:38;99057.94;;;34.30;33.67
4745;BME280;2386;42.138;24.746;2022-08-19T10:33:05;99057.94;;;34.30;32.89
4745;BME280;2386;42.138;24.746;2022-08-19T10:35:36;99059.94;;;34.29;32.24
4745;BME280;2386;42.138;24.746;2022-08-19T10:38:02;99063.19;;;34.35;33.11
4745;BME280;2386;42.138;24.746;2022-08-19T10:40:28;99070.81;;;34.45;33.44
4745;BME280;2386;42.138;24.746;2022-08-19T10:42:54;99058.75;;;34.48;32.65
4745;BME280;2386;42.138;24.746;2022-08-19T10:45:22;99064.38;;;34.59;33.31
4745;BME280;2386;42.138;24.746;2022-08-19T10:47:49;99047.47;;;34.55;33.16
4745;BME280;2386;42.138;24.746;2022-08-19T10:50:15;99061.91;;;34.72;33.39
4745;BME280;2386;42.138;24.746;2022-08-19T10:53:03;99052.28;;;34.66;32.88
4745;BME280;2386;42.138;24.746;2022-08-19T10:55:29;99054.28;;;34.69;33.58
4745;BME280;2386;42.138;24.746;2022-08-19T10:58:15;99055.47;;;34.71;33.09
4745;BME280;2386;42.138;24.746;2022-08-19T11:00:42;99048.66;;;34.69;32.50
4745;BME280;2386;42.138;24.746;2022-08-19T11:03:10;99041.81;;;34.63;31.96
4745;BME280;2386;42.138;24.746;2022-08-19T11:05:36;99050.66;;;34.72;31.42
4745;BME280;2386;42.138;24.746;2022-08-19T11:08:03;99042.19;;;34.79;32.01
4745;BME280;2386;42.138;24.746;2022-08-19T11:10:28;99033.72;;;34.79;31.59
4745;BME280;2386;42.138;24.746;2022-08-19T11:12:54;99037.75;;;34.85;32.23
4745;BME280;2386;42.138;24.746;2022-08-19T11:15:20;99038.88;;;34.98;31.51
4745;BME280;2386;42.138;24.746;2022-08-19T11:17:46;99021.56;;;35.00;30.90
4745;BME280;2386;42.138;24.746;2022-08-19T11:20:13;99030.38;;;35.12;30.62
4745;BME280;2386;42.138;24.746;2022-08-19T11:22:40;99023.94;;;35.05;30.51
4745;BME280;2386;42.138;24.746;2022-08-19T11:25:06;99026.75;;;35.08;29.64
4745;BME280;2386;42.138;24.746;2022-08-19T11:27:32;99027.91;;;35.21;31.26
4745;BME280;2386;42.138;24.746;2022-08-19T11:29:59;99024.66;;;35.34;31.56
4745;BME280;2386;42.138;24.746;2022-08-19T11:32:25;99018.56;;;35.39;30.27
4745;BME280;2386;42.138;24.746;2022-08-19T11:34:51;99012.53;;;35.37;29.93
4745;BME280;2386;42.138;24.746;2022-08-19T11:37:17;99017.31;;;35.47;29.59
4745;BME280;2386;42.138;24.746;2022-08-19T11:39:42;99009.22;;;35.49;29.67
4745;BME280;2386;42.138;24.746;2022-08-19T11:42:07;99012.78;;;35.60;30.43
4745;BME280;2386;42.138;24.746;2022-08-19T11:44:51;99010.78;;;35.61;30.57
4745;BME280;2386;42.138;24.746;2022-08-19T11:47:18;99017.19;;;35.65;30.51
4745;BME280;2386;42.138;24.746;2022-08-19T11:49:45;99008.66;;;35.68;29.82
4745;BME280;2386;42.138;24.746;2022-08-19T11:52:11;99006.19;;;35.77;29.57
4745;BME280;2386;42.138;24.746;2022-08-19T11:54:36;98999.69;;;35.87;29.51
4745;BME280;2386;42.138;24.746;2022-08-19T11:57:03;99006.41;;;36.01;29.34
4745;BME280;2386;42.138;24.746;2022-08-19T11:59:28;98999.56;;;36.02;28.55
4745;BME280;2386;42.138;24.746;2022-08-19T12:01:54;99002.25;;;36.16;29.71
4745;BME280;2386;42.138;24.746;2022-08-19T12:04:21;98992.94;;;36.19;29.38
4745;BME280;2386;42.138;24.746;2022-08-19T12:06:49;98996.41;;;36.37;28.30
4745;BME280;2386;42.138;24.746;2022-08-19T12:09:15;98985.84;;;36.41;28.93
4745;BME280;2386;42.138;24.746;2022-08-19T12:11:41;98993.06;;;36.46;30.41
4745;BME280;2386;42.138;24.746;2022-08-19T12:14:09;98992.94;;;36.57;29.65
4745;BME280;2386;42.138;24.746;2022-08-19T12:16:35;98987.97;;;36.68;29.41
4745;BME280;2386;42.138;24.746;2022-08-19T12:19:02;98970.22;;;37.01;29.66
4745;BME280;2386;42.138;24.746;2022-08-19T12:21:30;98974.63;;;38.30;26.73
4745;BME280;2386;42.138;24.746;2022-08-19T12:23:57;98978.34;;;40.39;25.05
4745;BME280;2386;42.138;24.746;2022-08-19T12:26:25;98971.03;;;42.67;23.68
4745;BME280;2386;42.138;24.746;2022-08-19T12:28:51;98969.16;;;44.70;22.30
4745;BME280;2386;42.138;24.746;2022-08-19T12:31:17;98982.97;;;46.55;20.55
4745;BME280;2386;42.138;24.746;2022-08-19T12:33:43;98984.72;;;48.05;17.37
4745;BME280;2386;42.138;24.746;2022-08-19T12:36:11;98981.16;;;49.09;17.15
4745;BME280;2386;42.138;24.746;2022-08-19T12:38:37;98981.72;;;50.24;15.71
4745;BME280;2386;42.138;24.746;2022-08-19T12:41:05;98986.44;;;50.98;15.78
4745;BME280;2386;42.138;24.746;2022-08-19T12:43:31;98985.13;;;51.43;14.56
4745;BME280;2386;42.138;24.746;2022-08-19T12:45:57;98986.09;;;51.90;14.67
4745;BME280;2386;42.138;24.746;2022-08-19T12:48:22;98991.59;;;52.05;13.95
4745;BME280;2386;42.138;24.746;2022-08-19T12:50:48;98984.03;;;52.49;14.59
4745;BME280;2386;42.138;24.746;2022-08-19T12:53:14;98989.41;;;52.75;12.99
4745;BME280;2386;42.138;24.746;2022-08-19T12:55:41;98988.06;;;52.81;13.81
4745;BME280;2386;42.138;24.746;2022-08-19T12:58:07;98982.41;;;53.00;13.76
4745;BME280;2386;42.138;24.746;2022-08-19T13:00:33;98985.28;;;53.06;13.23
4745;BME280;2386;42.138;24.746;2022-08-19T13:02:59;98979.28;;;52.98;13.00
4745;BME280;2386;42.138;24.746;2022-08-19T13:05:30;98973.22;;;52.96;13.29
4745;BME280;2386;42.138;24.746;2022-08-19T13:07:59;98963.19;;;53.33;13.28
4745;BME280;2386;42.138;24.746;2022-08-19T13:10:31;98970.97;;;53.13;13.49
4745;BME280;2386;42.138;24.746;2022-08-19T13:13:01;98967.97;;;53.25;13.49
4745;BME280;2386;42.138;24.746;2022-08-19T13:15:27;98966.69;;;53.20;12.76
4745;BME280;2386;42.138;24.746;2022-08-19T13:17:57;98968.53;;;53.23;13.26
4745;BME280;2386;42.138;24.746;2022-08-19T13:20:23;98968.72;;;53.61;12.78
4745;BME280;2386;42.138;24.746;2022-08-19T13:22:49;98962.09;;;53.36;12.39
4745;BME280;2386;42.138;24.746;2022-08-19T13:25:16;98963.75;;;53.26;13.02
4745;BME280;2386;42.138;24.746;2022-08-19T13:27:43;98968.81;;;52.84;12.94
4745;BME280;2386;42.138;24.746;2022-08-19T13:30:11;98967.72;;;52.87;12.58
4745;BME280;2386;42.138;24.746;2022-08-19T13:32:55;98962.56;;;53.10;13.03